sensor_id;sensor_type;location;lat;lon;timestamp;pressure;altitude;pressure_sealevel;temperature
48894;BMP280;34710;35.798;139.446;2022-07-24T00:00:10;99815.40;;;37.08
48894;BMP280;34710;35.798;139.446;2022-07-24T00:02:40;99812.48;;;37.10
48894;BMP280;34710;35.798;139.446;2022-07-24T00:05:09;99814.57;;;36.99
48894;BMP280;34710;35.798;139.446;2022-07-24T00:07:39;99816.58;;;36.49
48894;BMP280;34710;35.798;139.446;2022-07-24T00:10:09;99818.20;;;36.84
48894;BMP280;34710;35.798;139.446;2022-07-24T00:12:39;99817.15;;;36.98
48894;BMP280;34710;35.798;139.446;2022-07-24T00:15:10;99821.02;;;37.27
48894;BMP280;34710;35.798;139.446;2022-07-24T00:17:39;99816.97;;;37.45
48894;BMP280;34710;35.798;139.446;2022-07-24T00:20:10;99816.93;;;35.77
48894;BMP280;34710;35.798;139.446;2022-07-24T00:22:39;99814.48;;;36.06
48894;BMP280;34710;35.798;139.446;2022-07-24T00:25:08;99817.80;;;36.69
48894;BMP280;34710;35.798;139.446;2022-07-24T00:27:37;99822.82;;;37.50
48894;BMP280;34710;35.798;139.446;2022-07-24T00:30:08;99821.44;;;37.20
48894;BMP280;34710;35.798;139.446;2022-07-24T00:32:37;99823.69;;;36.22
48894;BMP280;34710;35.798;139.446;2022-07-24T00:35:07;99824.42;;;36.20
48894;BMP280;34710;35.798;139.446;2022-07-24T00:37:37;99822.22;;;36.92
48894;BMP280;34710;35.798;139.446;2022-07-24T00:40:07;99817.33;;;37.23
48894;BMP280;34710;35.798;139.446;2022-07-24T00:42:36;99814.71;;;37.46
48894;BMP280;34710;35.798;139.446;2022-07-24T00:45:05;99812.02;;;36.42
48894;BMP280;34710;35.798;139.446;2022-07-24T00:47:35;99811.18;;;36.76
48894;BMP280;34710;35.798;139.446;2022-07-24T00:50:06;99809.44;;;35.77
48894;BMP280;34710;35.798;139.446;2022-07-24T00:52:35;99807.45;;;35.18
48894;BMP280;34710;35.798;139.446;2022-07-24T00:55:06;99814.57;;;34.55
48894;BMP280;34710;35.798;139.446;2022-07-24T00:57:35;99814.44;;;34.76
48894;BMP280;34710;35.798;139.446;2022-07-24T01:00:05;99814.92;;;34.44
48894;BMP280;34710;35.798;139.446;2022-07-24T01:02:35;99817.65;;;35.08
48894;BMP280;34710;35.798;139.446;2022-07-24T01:05:08;99814.70;;;35.25
48894;BMP280;34710;35.798;139.446;2022-07-24T01:07:38;99814.59;;;35.45
48894;BMP280;34710;35.798;139.446;2022-07-24T01:10:10;99809.90;;;36.42
48894;BMP280;34710;35.798;139.446;2022-07-24T01:12:40;99810.24;;;37.00
48894;BMP280;34710;35.798;139.446;2022-07-24T01:15:12;99806.61;;;37.06
48894;BMP280;34710;35.798;139.446;2022-07-24T01:17:42;99805.56;;;36.75
48894;BMP280;34710;35.798;139.446;2022-07-24T01:20:12;99803.46;;;36.30
48894;BMP280;34710;35.798;139.446;2022-07-24T01:22:42;99802.33;;;36.24
48894;BMP280;34710;35.798;139.446;2022-07-24T01:25:11;99802.39;;;36.32
48894;BMP280;34710;35.798;139.446;2022-07-24T01:27:41;99798.98;;;36.34
48894;BMP280;34710;35.798;139.446;2022-07-24T01:30:11;99796.45;;;37.09
48894;BMP280;34710;35.798;139.446;2022-07-24T01:32:40;99802.26;;;37.35
48894;BMP280;34710;35.798;139.446;2022-07-24T01:35:09;99798.34;;;36.43
48894;BMP280;34710;35.798;139.446;2022-07-24T01:37:38;99793.02;;;36.18
48894;BMP280;34710;35.798;139.446;2022-07-24T01:40:08;99793.49;;;36.02
48894;BMP280;34710;35.798;139.446;2022-07-24T01:42:38;99799.95;;;35.67
48894;BMP280;34710;35.798;139.446;2022-07-24T01:45:08;99798.38;;;34.77
48894;BMP280;34710;35.798;139.446;2022-07-24T01:47:38;99798.54;;;34.03
48894;BMP280;34710;35.798;139.446;2022-07-24T01:50:08;99795.88;;;33.92
48894;BMP280;34710;35.798;139.446;2022-07-24T01:52:38;99793.57;;;34.49
48894;BMP280;34710;35.798;139.446;2022-07-24T01:55:08;99788.53;;;35.45
48894;BMP280;34710;35.798;139.446;2022-07-24T01:57:38;99787.57;;;35.94
48894;BMP280;34710;35.798;139.446;2022-07-24T02:00:09;99785.24;;;36.13
48894;BMP280;34710;35.798;139.446;2022-07-24T02:02:39;99787.37;;;35.52
48894;BMP280;34710;35.798;139.446;2022-07-24T02:05:09;99787.57;;;35.73
48894;BMP280;34710;35.798;139.446;2022-07-24T02:07:40;99785.06;;;36.10
48894;BMP280;34710;35.798;139.446;2022-07-24T02:10:11;99785.16;;;36.41
48894;BMP280;34710;35.798;139.446;2022-07-24T02:12:41;99787.68;;;36.18
48894;BMP280;34710;35.798;139.446;2022-07-24T02:15:11;99784.65;;;35.45
48894;BMP280;34710;35.798;139.446;2022-07-24T02:17:46;99784.08;;;34.18
48894;BMP280;34710;35.798;139.446;2022-07-24T02:20:16;99784.99;;;33.78
48894;BMP280;34710;35.798;139.446;2022-07-24T02:22:46;99781.51;;;33.94
48894;BMP280;34710;35.798;139.446;2022-07-24T02:25:15;99783.92;;;33.91
48894;BMP280;34710;35.798;139.446;2022-07-24T02:27:45;99782.05;;;33.38
48894;BMP280;34710;35.798;139.446;2022-07-24T02:30:16;99771.44;;;33.98
48894;BMP280;34710;35.798;139.446;2022-07-24T02:32:46;99763.94;;;34.82
48894;BMP280;34710;35.798;139.446;2022-07-24T02:35:15;99766.84;;;35.86
48894;BMP280;34710;35.798;139.446;2022-07-24T02:37:45;99761.59;;;35.10
48894;BMP280;34710;35.798;139.446;2022-07-24T02:40:15;99756.01;;;36.49
48894;BMP280;34710;35.798;139.446;2022-07-24T02:42:45;99749.94;;;35.02
48894;BMP280;34710;35.798;139.446;2022-07-24T02:45:14;99743.77;;;35.99
48894;BMP280;34710;35.798;139.446;2022-07-24T02:47:52;99740.52;;;36.22
48894;BMP280;34710;35.798;139.446;2022-07-24T02:50:24;99739.07;;;35.96
48894;BMP280;34710;35.798;139.446;2022-07-24T02:52:54;99740.96;;;35.81
48894;BMP280;34710;35.798;139.446;2022-07-24T02:55:24;99737.38;;;35.81
48894;BMP280;34710;35.798;139.446;2022-07-24T02:57:54;99734.31;;;34.64
48894;BMP280;34710;35.798;139.446;2022-07-24T03:00:24;99728.25;;;35.13
48894;BMP280;34710;35.798;139.446;2022-07-24T03:02:54;99726.66;;;36.02
48894;BMP280;34710;35.798;139.446;2022-07-24T03:05:24;99729.06;;;36.00
48894;BMP280;34710;35.798;139.446;2022-07-24T03:07:53;99723.36;;;35.59
48894;BMP280;34710;35.798;139.446;2022-07-24T03:10:23;99723.65;;;34.60
48894;BMP280;34710;35.798;139.446;2022-07-24T03:12:52;99719.62;;;34.49
48894;BMP280;34710;35.798;139.446;2022-07-24T03:15:22;99726.16;;;35.12
48894;BMP280;34710;35.798;139.446;2022-07-24T03:17:52;99723.22;;;34.06
48894;BMP280;34710;35.798;139.446;2022-07-24T03:20:23;99726.65;;;34.19
48894;BMP280;34710;35.798;139.446;2022-07-24T03:22:53;99728.30;;;34.93
48894;BMP280;34710;35.798;139.446;2022-07-24T03:25:24;99727.79;;;35.02
48894;BMP280;34710;35.798;139.446;2022-07-24T03:27:53;99718.78;;;33.97
48894;BMP280;34710;35.798;139.446;2022-07-24T03:30:22;99723.36;;;33.98
48894;BMP280;34710;35.798;139.446;2022-07-24T03:32:51;99718.23;;;34.04
48894;BMP280;34710;35.798;139.446;2022-07-24T03:35:21;99726.06;;;34.46
48894;BMP280;34710;35.798;139.446;2022-07-24T03:37:50;99721.93;;;34.42
48894;BMP280;34710;35.798;139.446;2022-07-24T03:40:19;99719.64;;;35.09
48894;BMP280;34710;35.798;139.446;2022-07-24T03:42:49;99720.04;;;34.42
48894;BMP280;34710;35.798;139.446;2022-07-24T03:45:18;99723.44;;;34.83
48894;BMP280;34710;35.798;139.446;2022-07-24T03:47:47;99718.62;;;34.96
48894;BMP280;34710;35.798;139.446;2022-07-24T03:50:16;99721.28;;;36.44
48894;BMP280;34710;35.798;139.446;2022-07-24T03:52:46;99722.01;;;35.86
48894;BMP280;34710;35.798;139.446;2022-07-24T03:55:15;99722.14;;;35.51
48894;BMP280;34710;35.798;139.446;2022-07-24T03:57:44;99719.87;;;35.43
48894;BMP280;34710;35.798;139.446;2022-07-24T04:00:15;99724.32;;;35.70
48894;BMP280;34710;35.798;139.446;2022-07-24T04:02:45;99718.82;;;34.76
48894;BMP280;34710;35.798;139.446;2022-07-24T04:05:14;99719.04;;;34.96
48894;BMP280;34710;35.798;139.446;2022-07-24T04:07:44;99716.35;;;33.63
48894;BMP280;34710;35.798;139.446;2022-07-24T04:10:13;99721.36;;;34.41
48894;BMP280;34710;35.798;139.446;2022-07-24T04:12:43;99729.74;;;33.17
48894;BMP280;34710;35.798;139.446;2022-07-24T04:15:12;99722.06;;;34.01
48894;BMP280;34710;35.798;139.446;2022-07-24T04:17:42;99722.83;;;33.42
48894;BMP280;34710;35.798;139.446;2022-07-24T04:20:13;99719.75;;;34.49
48894;BMP280;34710;35.798;139.446;2022-07-24T04:22:42;99721.26;;;34.38
48894;BMP280;34710;35.798;139.446;2022-07-24T04:25:11;99716.58;;;35.04
48894;BMP280;34710;35.798;139.446;2022-07-24T04:27:41;99713.24;;;34.59
48894;BMP280;34710;35.798;139.446;2022-07-24T04:30:11;99710.47;;;34.87
48894;BMP280;34710;35.798;139.446;2022-07-24T04:32:42;99707.49;;;34.58
48894;BMP280;34710;35.798;139.446;2022-07-24T04:35:11;99716.56;;;33.14
48894;BMP280;34710;35.798;139.446;2022-07-24T04:37:40;99706.70;;;33.62
48894;BMP280;34710;35.798;139.446;2022-07-24T04:40:11;99697.36;;;33.76
48894;BMP280;34710;35.798;139.446;2022-07-24T04:42:41;99707.51;;;33.49
48894;BMP280;34710;35.798;139.446;2022-07-24T04:45:11;99696.29;;;33.57
48894;BMP280;34710;35.798;139.446;2022-07-24T04:47:41;99689.78;;;33.70
48894;BMP280;34710;35.798;139.446;2022-07-24T04:50:10;99687.22;;;33.38
48894;BMP280;34710;35.798;139.446;2022-07-24T04:52:39;99688.39;;;34.42
48894;BMP280;34710;35.798;139.446;2022-07-24T04:55:10;99686.62;;;33.75
48894;BMP280;34710;35.798;139.446;2022-07-24T04:57:40;99690.26;;;33.64
48894;BMP280;34710;35.798;139.446;2022-07-24T05:00:12;99686.61;;;34.48
48894;BMP280;34710;35.798;139.446;2022-07-24T05:02:43;99686.05;;;35.49
48894;BMP280;34710;35.798;139.446;2022-07-24T05:05:12;99684.40;;;34.99
48894;BMP280;34710;35.798;139.446;2022-07-24T05:07:41;99691.20;;;34.81
48894;BMP280;34710;35.798;139.446;2022-07-24T05:10:11;99688.31;;;33.69
48894;BMP280;34710;35.798;139.446;2022-07-24T05:12:41;99689.10;;;33.86
48894;BMP280;34710;35.798;139.446;2022-07-24T05:15:11;99691.15;;;33.88
48894;BMP280;34710;35.798;139.446;2022-07-24T05:17:41;99690.35;;;34.87
48894;BMP280;34710;35.798;139.446;2022-07-24T05:20:11;99692.95;;;34.87
48894;BMP280;34710;35.798;139.446;2022-07-24T05:22:41;99690.72;;;34.47
48894;BMP280;34710;35.798;139.446;2022-07-24T05:25:10;99691.48;;;34.74
48894;BMP280;34710;35.798;139.446;2022-07-24T05:27:40;99685.71;;;33.87
48894;BMP280;34710;35.798;139.446;2022-07-24T05:30:10;99684.87;;;35.23
48894;BMP280;34710;35.798;139.446;2022-07-24T05:32:40;99686.40;;;35.62
48894;BMP280;34710;35.798;139.446;2022-07-24T05:35:10;99685.52;;;34.23
48894;BMP280;34710;35.798;139.446;2022-07-24T05:37:40;99681.67;;;34.46
48894;BMP280;34710;35.798;139.446;2022-07-24T05:40:12;99679.63;;;35.03
48894;BMP280;34710;35.798;139.446;2022-07-24T05:42:41;99677.54;;;34.95
48894;BMP280;34710;35.798;139.446;2022-07-24T05:45:10;99680.43;;;35.57
48894;BMP280;34710;35.798;139.446;2022-07-24T05:47:40;99678.27;;;34.59
48894;BMP280;34710;35.798;139.446;2022-07-24T05:50:11;99681.16;;;34.25
48894;BMP280;34710;35.798;139.446;2022-07-24T05:52:42;99682.65;;;34.87
48894;BMP280;34710;35.798;139.446;2022-07-24T05:55:11;99681.72;;;35.24
48894;BMP280;34710;35.798;139.446;2022-07-24T05:57:40;99683.88;;;35.76
48894;BMP280;34710;35.798;139.446;2022-07-24T06:00:10;99688.23;;;34.79
48894;BMP280;34710;35.798;139.446;2022-07-24T06:02:40;99689.36;;;34.73
48894;BMP280;34710;35.798;139.446;2022-07-24T06:05:09;99690.18;;;35.50
48894;BMP280;34710;35.798;139.446;2022-07-24T06:07:38;99688.35;;;34.62
48894;BMP280;34710;35.798;139.446;2022-07-24T06:10:08;99684.83;;;34.89
48894;BMP280;34710;35.798;139.446;2022-07-24T06:12:38;99689.90;;;36.05
48894;BMP280;34710;35.798;139.446;2022-07-24T06:15:09;99691.41;;;35.42
48894;BMP280;34710;35.798;139.446;2022-07-24T06:17:40;99694.31;;;34.70
48894;BMP280;34710;35.798;139.446;2022-07-24T06:20:11;99692.59;;;35.05
48894;BMP280;34710;35.798;139.446;2022-07-24T06:22:41;99694.61;;;35.44
48894;BMP280;34710;35.798;139.446;2022-07-24T06:25:10;99691.50;;;34.50
48894;BMP280;34710;35.798;139.446;2022-07-24T06:27:42;99692.19;;;35.23
48894;BMP280;34710;35.798;139.446;2022-07-24T06:30:14;99698.30;;;34.48
48894;BMP280;34710;35.798;139.446;2022-07-24T06:32:44;99702.78;;;34.40
48894;BMP280;34710;35.798;139.446;2022-07-24T06:35:14;99695.00;;;34.35
48894;BMP280;34710;35.798;139.446;2022-07-24T06:37:43;99693.64;;;34.09
48894;BMP280;34710;35.798;139.446;2022-07-24T06:40:13;99690.67;;;34.91
48894;BMP280;34710;35.798;139.446;2022-07-24T06:42:42;99696.49;;;33.93
48894;BMP280;34710;35.798;139.446;2022-07-24T06:45:12;99696.90;;;34.63
48894;BMP280;34710;35.798;139.446;2022-07-24T06:47:42;99697.74;;;35.12
48894;BMP280;34710;35.798;139.446;2022-07-24T06:50:13;99692.09;;;34.43
48894;BMP280;34710;35.798;139.446;2022-07-24T06:52:43;99700.47;;;34.28
48894;BMP280;34710;35.798;139.446;2022-07-24T06:55:12;99701.26;;;34.59
48894;BMP280;34710;35.798;139.446;2022-07-24T06:57:42;99701.01;;;34.10
48894;BMP280;34710;35.798;139.446;2022-07-24T07:00:12;99706.55;;;34.36
48894;BMP280;34710;35.798;139.446;2022-07-24T07:02:42;99713.38;;;33.90
48894;BMP280;34710;35.798;139.446;2022-07-24T07:05:11;99707.16;;;33.06
48894;BMP280;34710;35.798;139.446;2022-07-24T07:07:41;99708.19;;;33.32
48894;BMP280;34710;35.798;139.446;2022-07-24T07:10:10;99703.74;;;33.50
48894;BMP280;34710;35.798;139.446;2022-07-24T07:12:40;99712.31;;;34.10
48894;BMP280;34710;35.798;139.446;2022-07-24T07:15:09;99710.62;;;32.63
48894;BMP280;34710;35.798;139.446;2022-07-24T07:17:41;99716.61;;;32.59
48894;BMP280;34710;35.798;139.446;2022-07-24T07:20:11;99709.75;;;32.34
48894;BMP280;34710;35.798;139.446;2022-07-24T07:22:42;99719.02;;;32.26
48894;BMP280;34710;35.798;139.446;2022-07-24T07:25:12;99714.96;;;32.86
48894;BMP280;34710;35.798;139.446;2022-07-24T07:27:42;99715.58;;;32.10
48894;BMP280;34710;35.798;139.446;2022-07-24T07:30:11;99713.77;;;32.60
48894;BMP280;34710;35.798;139.446;2022-07-24T07:32:41;99720.52;;;33.25
48894;BMP280;34710;35.798;139.446;2022-07-24T07:35:11;99722.07;;;32.36
48894;BMP280;34710;35.798;139.446;2022-07-24T07:37:41;99718.93;;;31.91
48894;BMP280;34710;35.798;139.446;2022-07-24T07:40:13;99721.99;;;32.41
48894;BMP280;34710;35.798;139.446;2022-07-24T07:42:42;99719.16;;;32.54
48894;BMP280;34710;35.798;139.446;2022-07-24T07:45:11;99720.47;;;32.75
48894;BMP280;34710;35.798;139.446;2022-07-24T07:47:41;99715.70;;;32.74
48894;BMP280;34710;35.798;139.446;2022-07-24T07:50:11;99714.57;;;32.44
48894;BMP280;34710;35.798;139.446;2022-07-24T07:52:41;99718.83;;;31.80
48894;BMP280;34710;35.798;139.446;2022-07-24T07:55:10;99719.63;;;32.53
48894;BMP280;34710;35.798;139.446;2022-07-24T07:57:40;99724.70;;;31.94
48894;BMP280;34710;35.798;139.446;2022-07-24T08:00:11;99719.93;;;32.20
48894;BMP280;34710;35.798;139.446;2022-07-24T08:02:40;99717.45;;;32.95
48894;BMP280;34710;35.798;139.446;2022-07-24T08:05:09;99720.20;;;31.69
48894;BMP280;34710;35.798;139.446;2022-07-24T08:07:39;99723.14;;;31.73
48894;BMP280;34710;35.798;139.446;2022-07-24T08:10:09;99726.87;;;32.24
48894;BMP280;34710;35.798;139.446;2022-07-24T08:12:39;99723.17;;;32.38
48894;BMP280;34710;35.798;139.446;2022-07-24T08:15:10;99719.27;;;31.61
48894;BMP280;34710;35.798;139.446;2022-07-24T08:17:41;99720.34;;;30.84
48894;BMP280;34710;35.798;139.446;2022-07-24T08:20:10;99725.45;;;30.99
48894;BMP280;34710;35.798;139.446;2022-07-24T08:22:40;99728.79;;;32.23
48894;BMP280;34710;35.798;139.446;2022-07-24T08:25:10;99731.23;;;31.75
48894;BMP280;34710;35.798;139.446;2022-07-24T08:27:39;99736.48;;;31.90
48894;BMP280;34710;35.798;139.446;2022-07-24T08:30:10;99738.78;;;32.54
48894;BMP280;34710;35.798;139.446;2022-07-24T08:32:41;99740.41;;;32.33
48894;BMP280;34710;35.798;139.446;2022-07-24T08:35:11;99745.39;;;32.33
48894;BMP280;34710;35.798;139.446;2022-07-24T08:37:41;99736.11;;;31.30
48894;BMP280;34710;35.798;139.446;2022-07-24T08:40:12;99744.75;;;32.04
48894;BMP280;34710;35.798;139.446;2022-07-24T08:42:42;99750.88;;;32.77
48894;BMP280;34710;35.798;139.446;2022-07-24T08:45:12;99754.98;;;31.80
48894;BMP280;34710;35.798;139.446;2022-07-24T08:47:41;99752.44;;;31.16
48894;BMP280;34710;35.798;139.446;2022-07-24T08:50:12;99750.10;;;30.74
48894;BMP280;34710;35.798;139.446;2022-07-24T08:52:42;99749.13;;;29.97
48894;BMP280;34710;35.798;139.446;2022-07-24T08:55:12;99748.81;;;31.37
48894;BMP280;34710;35.798;139.446;2022-07-24T08:57:42;99756.95;;;30.59
48894;BMP280;34710;35.798;139.446;2022-07-24T09:00:12;99760.48;;;31.35
48894;BMP280;34710;35.798;139.446;2022-07-24T09:02:42;99758.05;;;30.59
48894;BMP280;34710;35.798;139.446;2022-07-24T09:05:12;99763.97;;;31.23
48894;BMP280;34710;35.798;139.446;2022-07-24T09:07:41;99764.60;;;31.00
48894;BMP280;34710;35.798;139.446;2022-07-24T09:10:13;99765.59;;;29.82
48894;BMP280;34710;35.798;139.446;2022-07-24T09:12:44;99774.60;;;29.58
48894;BMP280;34710;35.798;139.446;2022-07-24T09:15:16;99778.13;;;29.90
48894;BMP280;34710;35.798;139.446;2022-07-24T09:17:51;99784.67;;;29.33
48894;BMP280;34710;35.798;139.446;2022-07-24T09:20:21;99783.29;;;30.12
48894;BMP280;34710;35.798;139.446;2022-07-24T09:22:51;99780.97;;;30.30
48894;BMP280;34710;35.798;139.446;2022-07-24T09:25:23;99786.17;;;30.39
48894;BMP280;34710;35.798;139.446;2022-07-24T09:27:54;99784.92;;;29.99
48894;BMP280;34710;35.798;139.446;2022-07-24T09:30:27;99796.07;;;31.11
48894;BMP280;34710;35.798;139.446;2022-07-24T09:32:59;99797.43;;;30.78
48894;BMP280;34710;35.798;139.446;2022-07-24T09:35:34;99795.77;;;30.89
48894;BMP280;34710;35.798;139.446;2022-07-24T09:38:08;99802.00;;;31.41
48894;BMP280;34710;35.798;139.446;2022-07-24T09:40:38;99806.31;;;31.77
48894;BMP280;34710;35.798;139.446;2022-07-24T09:43:19;99810.24;;;31.16
48894;BMP280;34710;35.798;139.446;2022-07-24T09:45:59;99812.07;;;30.77
48894;BMP280;34710;35.798;139.446;2022-07-24T09:48:31;99812.91;;;30.60
48894;BMP280;34710;35.798;139.446;2022-07-24T09:51:03;99813.50;;;31.45
48894;BMP280;34710;35.798;139.446;2022-07-24T09:53:33;99815.22;;;30.70
48894;BMP280;34710;35.798;139.446;2022-07-24T09:56:06;99819.37;;;31.16
48894;BMP280;34710;35.798;139.446;2022-07-24T09:58:38;99819.25;;;31.50
48894;BMP280;34710;35.798;139.446;2022-07-24T10:01:09;99818.43;;;30.86
48894;BMP280;34710;35.798;139.446;2022-07-24T10:03:43;99820.08;;;31.06
48894;BMP280;34710;35.798;139.446;2022-07-24T10:06:15;99822.26;;;31.16
48894;BMP280;34710;35.798;139.446;2022-07-24T10:08:47;99826.26;;;30.40
48894;BMP280;34710;35.798;139.446;2022-07-24T10:11:17;99830.99;;;29.62
48894;BMP280;34710;35.798;139.446;2022-07-24T10:13:47;99833.63;;;29.35
48894;BMP280;34710;35.798;139.446;2022-07-24T10:16:30;99832.86;;;29.09
48894;BMP280;34710;35.798;139.446;2022-07-24T10:19:00;99829.13;;;29.10
48894;BMP280;34710;35.798;139.446;2022-07-24T10:21:31;99826.72;;;30.19
48894;BMP280;34710;35.798;139.446;2022-07-24T10:24:57;99830.37;;;30.22
48894;BMP280;34710;35.798;139.446;2022-07-24T10:27:29;99837.44;;;28.89
48894;BMP280;34710;35.798;139.446;2022-07-24T10:30:01;99841.24;;;29.08
48894;BMP280;34710;35.798;139.446;2022-07-24T10:32:32;99845.21;;;29.37
48894;BMP280;34710;35.798;139.446;2022-07-24T10:35:08;99846.59;;;29.53
48894;BMP280;34710;35.798;139.446;2022-07-24T10:37:50;99850.49;;;29.79
48894;BMP280;34710;35.798;139.446;2022-07-24T10:40:25;99857.15;;;29.05
48894;BMP280;34710;35.798;139.446;2022-07-24T10:43:15;99861.98;;;29.53
48894;BMP280;34710;35.798;139.446;2022-07-24T10:45:46;99871.24;;;28.99
48894;BMP280;34710;35.798;139.446;2022-07-24T10:48:48;99871.02;;;29.27
48894;BMP280;34710;35.798;139.446;2022-07-24T10:51:18;99876.90;;;29.22
48894;BMP280;34710;35.798;139.446;2022-07-24T10:53:52;99876.34;;;29.27
48894;BMP280;34710;35.798;139.446;2022-07-24T10:56:25;99881.45;;;29.26
48894;BMP280;34710;35.798;139.446;2022-07-24T10:58:58;99882.44;;;29.27
48894;BMP280;34710;35.798;139.446;2022-07-24T11:01:32;99882.86;;;30.20
48894;BMP280;34710;35.798;139.446;2022-07-24T11:04:24;99883.60;;;30.20
48894;BMP280;34710;35.798;139.446;2022-07-24T11:06:56;99887.79;;;29.67
48894;BMP280;34710;35.798;139.446;2022-07-24T11:09:27;99887.69;;;29.71
48894;BMP280;34710;35.798;139.446;2022-07-24T11:12:05;99892.30;;;29.13
48894;BMP280;34710;35.798;139.446;2022-07-24T11:14:51;99893.83;;;30.09
48894;BMP280;34710;35.798;139.446;2022-07-24T11:17:53;99898.06;;;30.97
48894;BMP280;34710;35.798;139.446;2022-07-24T11:20:23;99895.39;;;30.79
48894;BMP280;34710;35.798;139.446;2022-07-24T11:22:54;99897.74;;;31.28
48894;BMP280;34710;35.798;139.446;2022-07-24T11:25:25;99899.60;;;31.52
48894;BMP280;34710;35.798;139.446;2022-07-24T11:27:57;99903.44;;;29.34
48894;BMP280;34710;35.798;139.446;2022-07-24T11:30:28;99904.68;;;30.12
48894;BMP280;34710;35.798;139.446;2022-07-24T11:32:59;99906.32;;;30.54
48894;BMP280;34710;35.798;139.446;2022-07-24T11:35:31;99906.51;;;29.63
48894;BMP280;34710;35.798;139.446;2022-07-24T11:38:02;99908.58;;;29.58
48894;BMP280;34710;35.798;139.446;2022-07-24T11:40:33;99912.63;;;29.32
48894;BMP280;34710;35.798;139.446;2022-07-24T11:43:04;99914.31;;;29.40
48894;BMP280;34710;35.798;139.446;2022-07-24T11:45:33;99915.20;;;29.23
48894;BMP280;34710;35.798;139.446;2022-07-24T11:48:03;99910.73;;;29.40
48894;BMP280;34710;35.798;139.446;2022-07-24T11:50:32;99912.01;;;30.22
48894;BMP280;34710;35.798;139.446;2022-07-24T11:53:04;99914.91;;;29.97
48894;BMP280;34710;35.798;139.446;2022-07-24T11:55:34;99914.27;;;30.64
48894;BMP280;34710;35.798;139.446;2022-07-24T11:58:03;99917.50;;;29.72
48894;BMP280;34710;35.798;139.446;2022-07-24T12:00:33;99919.83;;;29.36
48894;BMP280;34710;35.798;139.446;2022-07-24T12:03:02;99917.15;;;29.78
48894;BMP280;34710;35.798;139.446;2022-07-24T12:05:34;99918.85;;;29.57
48894;BMP280;34710;35.798;139.446;2022-07-24T12:08:15;99916.87;;;29.88
48894;BMP280;34710;35.798;139.446;2022-07-24T12:10:46;99917.71;;;30.53
48894;BMP280;34710;35.798;139.446;2022-07-24T12:13:15;99918.30;;;30.73
48894;BMP280;34710;35.798;139.446;2022-07-24T12:15:44;99922.59;;;30.16
48894;BMP280;34710;35.798;139.446;2022-07-24T12:18:13;99927.71;;;29.82
48894;BMP280;34710;35.798;139.446;2022-07-24T12:20:45;99928.26;;;29.95
48894;BMP280;34710;35.798;139.446;2022-07-24T12:23:15;99930.35;;;29.96
48894;BMP280;34710;35.798;139.446;2022-07-24T12:25:45;99932.22;;;30.76
48894;BMP280;34710;35.798;139.446;2022-07-24T12:28:17;99931.90;;;30.93
48894;BMP280;34710;35.798;139.446;2022-07-24T12:30:48;99937.24;;;30.83
48894;BMP280;34710;35.798;139.446;2022-07-24T12:33:23;99936.68;;;30.94
48894;BMP280;34710;35.798;139.446;2022-07-24T12:35:55;99941.15;;;29.63
48894;BMP280;34710;35.798;139.446;2022-07-24T12:38:26;99937.87;;;30.41
48894;BMP280;34710;35.798;139.446;2022-07-24T12:41:04;99937.18;;;30.98
48894;BMP280;34710;35.798;139.446;2022-07-24T12:43:44;99936.17;;;30.63
48894;BMP280;34710;35.798;139.446;2022-07-24T12:46:14;99938.06;;;30.47
48894;BMP280;34710;35.798;139.446;2022-07-24T12:48:58;99936.58;;;29.87
48894;BMP280;34710;35.798;139.446;2022-07-24T12:51:27;99934.46;;;29.91
48894;BMP280;34710;35.798;139.446;2022-07-24T12:54:16;99930.61;;;30.70
48894;BMP280;34710;35.798;139.446;2022-07-24T12:56:47;99928.29;;;29.50
48894;BMP280;34710;35.798;139.446;2022-07-24T12:59:32;99928.77;;;29.58
48894;BMP280;34710;35.798;139.446;2022-07-24T13:02:05;99932.78;;;29.57
48894;BMP280;34710;35.798;139.446;2022-07-24T13:04:42;99933.36;;;29.69
48894;BMP280;34710;35.798;139.446;2022-07-24T13:07:12;99934.80;;;29.26
48894;BMP280;34710;35.798;139.446;2022-07-24T13:09:42;99935.20;;;28.47
48894;BMP280;34710;35.798;139.446;2022-07-24T13:12:13;99930.71;;;29.03
48894;BMP280;34710;35.798;139.446;2022-07-24T13:14:43;99924.49;;;29.68
48894;BMP280;34710;35.798;139.446;2022-07-24T13:17:14;99921.86;;;30.03
48894;BMP280;34710;35.798;139.446;2022-07-24T13:19:45;99921.71;;;29.93
48894;BMP280;34710;35.798;139.446;2022-07-24T13:22:14;99918.81;;;30.39
48894;BMP280;34710;35.798;139.446;2022-07-24T13:24:44;99923.05;;;28.14
48894;BMP280;34710;35.798;139.446;2022-07-24T13:27:14;99925.55;;;28.30
48894;BMP280;34710;35.798;139.446;2022-07-24T13:29:43;99926.29;;;28.40
48894;BMP280;34710;35.798;139.446;2022-07-24T13:32:13;99922.22;;;29.87
48894;BMP280;34710;35.798;139.446;2022-07-24T13:34:43;99923.21;;;29.17
48894;BMP280;34710;35.798;139.446;2022-07-24T13:37:12;99922.41;;;29.88
48894;BMP280;34710;35.798;139.446;2022-07-24T13:39:42;99922.14;;;29.75
48894;BMP280;34710;35.798;139.446;2022-07-24T13:42:11;99923.82;;;29.67
48894;BMP280;34710;35.798;139.446;2022-07-24T13:44:41;99920.59;;;29.95
48894;BMP280;34710;35.798;139.446;2022-07-24T13:47:10;99919.31;;;29.85
48894;BMP280;34710;35.798;139.446;2022-07-24T13:49:40;99925.09;;;28.79
48894;BMP280;34710;35.798;139.446;2022-07-24T13:52:09;99931.72;;;29.04
48894;BMP280;34710;35.798;139.446;2022-07-24T13:54:38;99926.92;;;27.33
48894;BMP280;34710;35.798;139.446;2022-07-24T13:57:08;99926.22;;;27.18
48894;BMP280;34710;35.798;139.446;2022-07-24T13:59:37;99925.26;;;26.94
48894;BMP280;34710;35.798;139.446;2022-07-24T14:02:06;99927.66;;;27.97
48894;BMP280;34710;35.798;139.446;2022-07-24T14:04:35;99927.99;;;28.09